D/T METAR WX W/DIR W/SPE G/SPE TEMP DEWP
19/03/19 03:20 EGPI 190320Z AUTO 22008KT 190V250 9999 OVC031/// 08/08 Q1020 SW (220°) 9.2mph 8°C 8°C
19/03/19 02:50 EGPI 190250Z AUTO 22007KT 190V250 9999 BKN030/// 08/08 Q1020 SW (220°) 8.1mph 8°C 8°C
19/03/19 02:20 EGPI 190220Z AUTO 22007KT 7000 FEW004/// BKN030/// 08/08 Q1020 SW (220°) 8.1mph 8°C 8°C
19/03/19 01:50 EGPI 190150Z AUTO 23008KT 7000 SCT004/// BKN027/// 08/08 Q1021 SW (230°) 9.2mph 8°C 8°C
19/03/19 01:20 EGPI 190120Z AUTO 23008KT 8000 BKN004/// SCT026/// 08/08 Q1021 REDZ SW (230°) 9.2mph 8°C 8°C
19/03/19 00:50 EGPI 190050Z AUTO 25006KT 7000 SCT002/// BKN021/// 08/08 Q1021 REDZ WSW (250°) 6.9mph 8°C 8°C
19/03/19 00:20 EGPI 190020Z AUTO 24008KT 1400 -DZ BKN002/// SCT011/// 08/08 Q1021 -DZ WSW (240°) 9.2mph 8°C 8°C
18/03/19 23:50 EGPI 182350Z AUTO 24008KT 6000 SCT004/// SCT011/// 08/08 Q1021 WSW (240°) 9.2mph 8°C 8°C
18/03/19 23:20 EGPI 182320Z AUTO 24007KT 7000 FEW004/// SCT021/// BKN039/// 08/08 Q1020 WSW (240°) 8.1mph 8°C 8°C
18/03/19 22:50 EGPI 182250Z AUTO 24006KT 8000 FEW004/// BKN039/// 08/08 Q1020 WSW (240°) 6.9mph 8°C 8°C
18/03/19 22:20 EGPI 182220Z AUTO 25007KT 7000 FEW004/// SCT011/// BKN025/// 08/08 Q1020 WSW (250°) 8.1mph 8°C 8°C
18/03/19 21:50 EGPI 182150Z AUTO 24004KT 5000 BR BKN004/// SCT034/// 08/08 Q1020 BR WSW (240°) 4.6mph 8°C 8°C
18/03/19 21:20 EGPI 182120Z AUTO VRB02KT 5000 BR SCT004/// 08/08 Q1020 BR N (0°) 2.3mph 8°C 8°C
18/03/19 20:50 EGPI 182050Z AUTO VRB01KT 4500 BR FEW009/// 08/07 Q1020 BR N (0°) 1.2mph 8°C 7°C
18/03/19 20:20 EGPI 182020Z AUTO VRB01KT 5000 BR BKN027/// 07/07 Q1020 BR N (0°) 1.2mph 7°C 7°C
18/03/19 19:50 EGPI 181950Z AUTO VRB02KT 5000 BR FEW011/// 06/05 Q1020 BR N (0°) 2.3mph 6°C 5°C
18/03/19 19:20 EGPI 181920Z AUTO VRB02KT 4700 BR NCD 06/05 Q1019 BR N (0°) 2.3mph 6°C 5°C
18/03/19 18:50 EGPI 181850Z AUTO 30004KT 5000 BR FEW044/// 07/06 Q1019 BR WNW (300°) 4.6mph 7°C 6°C
18/03/19 18:20 EGPI 181820Z 28008KT 9999 FEW008 BKN046 09/08 Q1019 W (280°) 9.2mph 9°C 8°C
18/03/19 17:50 EGPI 181750Z 28008KT 9999 FEW025 BKN049 09/08 Q1019 W (280°) 9.2mph 9°C 8°C
18/03/19 17:20 EGPI 181720Z 29008KT 9999 BKN049 09/08 Q1018 WNW (290°) 9.2mph 9°C 8°C
18/03/19 16:50 EGPI 181650Z 29010KT 9999 FEW014 SCT035 10/08 Q1018 WNW (290°) 11.5mph 10°C 8°C
18/03/19 16:20 EGPI 181620Z 29010KT 9999 FEW015 SCT027 10/08 Q1017 WNW (290°) 11.5mph 10°C 8°C
18/03/19 15:50 EGPI 181550Z 29010KT 9999 FEW026 SCT036 09/08 Q1017 WNW (290°) 11.5mph 9°C 8°C
18/03/19 15:20 EGPI 181520Z 30013KT 9999 SCT035 10/08 Q1017 WNW (300°) 15.0mph 10°C 8°C
18/03/19 14:50 EGPI 181450Z 28010KT 9999 BKN039 10/09 Q1017 W (280°) 11.5mph 10°C 9°C
18/03/19 14:20 EGPI 181420Z 28011KT 9999 VCSH SCT012 BKN046 10/08 Q1016 VCSH W (280°) 12.7mph 10°C 8°C
18/03/19 13:50 EGPI 181350Z 28011KT 9999 SCT011 BKN039 10/09 Q1016 W (280°) 12.7mph 10°C 9°C
18/03/19 13:20 EGPI 181320Z 28011KT 9999 SCT011 BKN033 10/08 Q1016 W (280°) 12.7mph 10°C 8°C
18/03/19 12:50 EGPI 181250Z 28012KT 9999 SCT012 SCT037 10/09 Q1016 W (280°) 13.8mph 10°C 9°C
18/03/19 12:20 EGPI 181220Z AUTO 27011KT 9999 FEW014/// BKN034/// 10/09 Q1015 W (270°) 12.7mph 10°C 9°C
18/03/19 11:50 EGPI 181150Z AUTO 26011KT 9999 FEW033/// 09/09 Q1015 W (260°) 12.7mph 9°C 9°C
18/03/19 11:20 EGPI 181120Z 23010KT 9999 FEW006 BKN049 09/08 Q1015 SW (230°) 11.5mph 9°C 8°C
18/03/19 10:50 EGPI 181050Z 22012KT 9999 SCT006 SCT017 08/08 Q1014 SW (220°) 13.8mph 8°C 8°C
18/03/19 10:20 EGPI 181020Z 22012KT 9999 -RA SCT004 BKN049 08/07 Q1014 -RA SW (220°) 13.8mph 8°C 7°C
18/03/19 09:50 EGPI 180950Z 21010KT 180V240 8000 RADZ BKN006 07/07 Q1014 RA DZ SSW (210°) 11.5mph 7°C 7°C
18/03/19 08:50 EGPI 180850Z 20009KT 170V230 6000 -DZRA BKN003 BKN009 06/06 Q1014 -DZ -RA SSW (200°) 10.4mph 6°C 6°C
18/03/19 08:20 EGPI 180820Z 21009KT 170V250 5000 -DZ BR BKN006 06/06 Q1014 -DZ BR SSW (210°) 10.4mph 6°C 6°C
18/03/19 07:50 EGPI 180750Z 22012KT 9999 -DZ SCT007 BKN020 06/06 Q1014 -DZ SW (220°) 13.8mph 6°C 6°C
18/03/19 07:20 EGPI 180720Z AUTO 23014KT 9999 BKN009/// SCT016/// 06/06 Q1014 RERA SW (230°) 16.1mph 6°C 6°C
18/03/19 06:50 EGPI 180650Z AUTO 22010KT 180V260 9999 -RADZ SCT009/// BKN017/// 06/05 Q1014 -RA -DZ SW (220°) 11.5mph 6°C 5°C
18/03/19 06:20 EGPI 180620Z AUTO 21008KT 180V240 5000 RA BKN016/// BKN027/// 06/05 Q1014 RA SSW (210°) 9.2mph 6°C 5°C
18/03/19 05:50 EGPI 180550Z AUTO 23010KT 7000 -DZ FEW011/// SCT018/// BKN025/// 06/05 Q1014 -DZ SW (230°) 11.5mph 6°C 5°C
18/03/19 05:20 EGPI 180520Z AUTO 26008KT 230V290 9999 -RA FEW018/// BKN023/// BKN032/// 06/04 Q1014 -RA W (260°) 9.2mph 6°C 4°C
18/03/19 04:50 EGPI 180450Z AUTO 28008KT 9999 -RA BKN021/// 06/04 Q1014 -RA W (280°) 9.2mph 6°C 4°C
18/03/19 04:20 EGPI 180420Z AUTO 28007KT 9999 -RA BKN025/// 06/05 Q1014 -RA W (280°) 8.1mph 6°C 5°C
18/03/19 03:50 EGPI 180350Z AUTO 31004KT 280V350 6000 RA SCT013/// SCT030/// 05/04 Q1014 RA NW (310°) 4.6mph 5°C 4°C
18/03/19 03:20 EGPI 180320Z AUTO 34006KT 310V010 9999 -RA SCT028/// BKN038/// 05/03 Q1014 -RA NNW (340°) 6.9mph 5°C 3°C
18/03/19 02:50 EGPI 180250Z AUTO 29019KT 8000 -RA SCT023/// 06/04 Q1014 -RA WNW (290°) 21.9mph 6°C 4°C
18/03/19 02:20 EGPI 180220Z AUTO 27007KT 9999 NCD 06/04 Q1014 W (270°) 8.1mph 6°C 4°C
18/03/19 01:50 EGPI 180150Z AUTO 25007KT 9999 FEW042/// 06/04 Q1014 WSW (250°) 8.1mph 6°C 4°C
18/03/19 01:20 EGPI 180120Z AUTO 26009KT 9999 BKN042/// 07/05 Q1014 W (260°) 10.4mph 7°C 5°C
18/03/19 00:50 EGPI 180050Z AUTO 28008KT 9999 NCD 06/04 Q1014 W (280°) 9.2mph 6°C 4°C
18/03/19 00:20 EGPI 180020Z AUTO 29010KT 9999 NCD 06/04 Q1014 WNW (290°) 11.5mph 6°C 4°C
17/03/19 23:50 EGPI 172350Z AUTO 29008KT 9999 NCD 06/05 Q1014 WNW (290°) 9.2mph 6°C 5°C
17/03/19 23:20 EGPI 172320Z AUTO 29009KT 9999 NCD 06/04 Q1014 WNW (290°) 10.4mph 6°C 4°C
17/03/19 22:50 EGPI 172250Z AUTO 31007KT 9999 NCD 03/01 Q1014 NW (310°) 8.1mph 3°C 1°C
17/03/19 22:20 EGPI 172220Z AUTO 31012KT 9999 NCD 06/04 Q1013 NW (310°) 13.8mph 6°C 4°C
17/03/19 21:50 EGPI 172150Z AUTO 30010KT 260V330 9999 FEW026/// 06/05 Q1013 WNW (300°) 11.5mph 6°C 5°C
17/03/19 21:20 EGPI 172120Z AUTO 32007KT 9999 FEW028/// 03/02 Q1013 NW (320°) 8.1mph 3°C 2°C
17/03/19 20:50 EGPI 172050Z AUTO 32010KT 9999 NCD 04/03 Q1013 NW (320°) 11.5mph 4°C 3°C
17/03/19 20:20 EGPI 172020Z AUTO 31010KT 9999 NCD 04/03 Q1012 NW (310°) 11.5mph 4°C 3°C
17/03/19 19:50 EGPI 171950Z AUTO 31010KT 8000 NCD 05/03 Q1012 NW (310°) 11.5mph 5°C 3°C
17/03/19 19:20 EGPI 171920Z AUTO 33007KT 9999 NCD 03/01 Q1012 NNW (330°) 8.1mph 3°C 1°C
17/03/19 18:50 EGPI 171850Z AUTO 33010KT 9999 FEW030/// 05/02 Q1011 NNW (330°) 11.5mph 5°C 2°C
17/03/19 18:20 EGPI 171820Z AUTO 32014KT 9999 FEW031/// 07/03 Q1011 NW (320°) 16.1mph 7°C 3°C
17/03/19 17:50 EGPI 171750Z AUTO 32013KT 290V350 9999 SCT031/// 07/04 Q1010 NW (320°) 15.0mph 7°C 4°C
17/03/19 17:20 EGPI 171720Z 31016KT 9999 SCT028 08/04 Q1009 NW (310°) 18.4mph 8°C 4°C
17/03/19 16:50 EGPI 171650Z 32016KT 9999 FEW027 08/03 Q1009 NW (320°) 18.4mph 8°C 3°C
17/03/19 16:20 EGPI 171620Z 32019KT 290V350 9999 SCT024 SCT033 09/04 Q1008 NW (320°) 21.9mph 9°C 4°C
17/03/19 15:50 EGPI 171550Z 34018KT 9999 SCT025 08/05 Q1007 NNW (340°) 20.7mph 8°C 5°C
17/03/19 15:20 EGPI 171520Z 33022KT 9999 FEW027 08/05 Q1007 NNW (330°) 25.3mph 8°C 5°C
17/03/19 14:50 EGPI 171450Z 33022KT 300V360 9999 SCT028 SCT035 09/05 Q1006 NNW (330°) 25.3mph 9°C 5°C
17/03/19 14:20 EGPI 171420Z AUTO 33022KT 9999 SCT025/// 08/03 Q1005 NNW (330°) 25.3mph 8°C 3°C
17/03/19 13:50 EGPI 171350Z AUTO 33026KT 300V360 9999 BKN024/// 08/03 Q1004 NNW (330°) 29.9mph 8°C 3°C
17/03/19 13:20 EGPI 171320Z AUTO 33024KT 300V360 9999 SCT025/// SCT030/// 09/05 Q1004 NNW (330°) 27.6mph 9°C 5°C
17/03/19 12:50 EGPI 171250Z AUTO 33027KT 9999 SCT024/// 09/04 Q1003 RERA NNW (330°) 31.1mph 9°C 4°C
17/03/19 12:20 EGPI 171220Z AUTO 33025KT 9999 SCT024/// 09/05 Q1002 RERA NNW (330°) 28.8mph 9°C 5°C
17/03/19 11:50 EGPI 171150Z AUTO 32022KT 290V350 9999 SCT025/// SCT034/// 09/05 Q1001 NW (320°) 25.3mph 9°C 5°C
17/03/19 11:20 EGPI 171120Z AUTO 32020KT 290V350 9999 NCD 08/04 Q1000 NW (320°) 23.0mph 8°C 4°C
17/03/19 10:50 EGPI 171050Z AUTO 33018KT 9999 SCT025/// 09/05 Q1000 NNW (330°) 20.7mph 9°C 5°C
17/03/19 10:20 EGPI 171020Z AUTO 33015KT 9999 SCT020/// 07/05 Q0999 RERA NNW (330°) 17.3mph 7°C 5°C
17/03/19 09:50 EGPI 170950Z AUTO 34009KT 310V020 9999 BKN015/// BKN026/// 06/04 Q0998 RERA NNW (340°) 10.4mph 6°C 4°C
17/03/19 09:20 EGPI 170920Z AUTO 27013KT 9999 FEW020/// BKN026/// 06/04 Q0998 W (270°) 15.0mph 6°C 4°C
17/03/19 08:50 EGPI 170850Z AUTO 28015KT 9999 SCT032/// SCT038/// 06/04 Q0997 W (280°) 17.3mph 6°C 4°C
17/03/19 08:20 EGPI 170820Z AUTO 28017KT 9999 FEW042/// 06/03 Q0997 W (280°) 19.6mph 6°C 3°C
17/03/19 07:50 EGPI 170750Z AUTO 28017KT 9999 NCD 05/02 Q0996 W (280°) 19.6mph 5°C 2°C
17/03/19 07:20 EGPI 170720Z AUTO 28019KT 9999 NCD 05/02 Q0996 W (280°) 21.9mph 5°C 2°C
17/03/19 06:50 EGPI 170650Z AUTO 28011KT 9999 NCD 04/01 Q0996 RERA W (280°) 12.7mph 4°C 1°C
17/03/19 06:20 EGPI 170620Z AUTO 28014KT 9999 FEW043/// 04/00 Q0996 RERA W (280°) 16.1mph 4°C 0°C
17/03/19 05:50 EGPI 170550Z AUTO 29018KT 9999 FEW043/// 05/01 Q0995 WNW (290°) 20.7mph 5°C 1°C
17/03/19 05:20 EGPI 170520Z AUTO 29016KT 9999 NCD 04/00 Q0995 WNW (290°) 18.4mph 4°C 0°C
17/03/19 04:50 EGPI 170450Z AUTO 27019KT 9999 FEW027/// 04/01 Q0995 W (270°) 21.9mph 4°C 1°C
17/03/19 04:20 EGPI 170420Z AUTO 30017KT 9999 FEW037/// 04/00 Q0994 WNW (300°) 19.6mph 4°C 0°C
17/03/19 03:50 EGPI 170350Z AUTO 32012KT 9999 SCT038/// 03/01 Q0994 RERA NW (320°) 13.8mph 3°C 1°C
17/03/19 03:20 EGPI 170320Z AUTO 32007KT 270V010 9999 SCT038/// 03/01 Q0994 RERA NW (320°) 8.1mph 3°C 1°C
17/03/19 02:50 EGPI 170250Z AUTO 29011KT 9999 FEW028/// SCT038/// 04/02 Q0994 RERA WNW (290°) 12.7mph 4°C 2°C
17/03/19 02:20 EGPI 170220Z AUTO 29012KT 9999 FEW033/// 04/02 Q0994 WNW (290°) 13.8mph 4°C 2°C
17/03/19 01:50 EGPI 170150Z AUTO 33008KT 290V350 9999 FEW023/// 02/01 Q0994 NNW (330°) 9.2mph 2°C 1°C
17/03/19 01:20 EGPI 170120Z AUTO 30007KT 9999 FEW024/// 02/01 Q0993 RERA WNW (300°) 8.1mph 2°C 1°C
17/03/19 00:50 EGPI 170050Z AUTO 34010KT 9999 SCT012/// 02/01 Q0993 RERA NNW (340°) 11.5mph 2°C 1°C
17/03/19 00:20 EGPI 170020Z AUTO 31014KT 270V340 4400 RA FEW012/// BKN015/// 03/01 Q0993 RA NW (310°) 16.1mph 3°C 1°C
16/03/19 23:50 EGPI 162350Z AUTO 29017KT 270V340 9999 -RA FEW018/// BKN023/// BKN031/// 04/03 Q0993 -RA WNW (290°) 19.6mph 4°C 3°C
16/03/19 23:20 EGPI 162320Z AUTO 32009KT 280V350 9999 FEW012/// BKN015/// 03/01 Q0993 RERA NW (320°) 10.4mph 3°C 1°C
16/03/19 22:50 EGPI 162250Z AUTO 33011KT 9999 BKN021/// SCT039/// 03/02 Q0992 RERA NNW (330°) 12.7mph 3°C 2°C
16/03/19 22:20 EGPI 162220Z AUTO 29014KT 9999 SCT020/// 04/02 Q0992 RERA WNW (290°) 16.1mph 4°C 2°C
16/03/19 21:50 EGPI 162150Z AUTO 31010KT 9999 FEW023/// 03/03 Q0992 NW (310°) 11.5mph 3°C 3°C
16/03/19 21:20 EGPI 162120Z AUTO 32007KT 9999 NCD 02/01 Q0991 RERA NW (320°) 8.1mph 2°C 1°C
16/03/19 20:50 EGPI 162050Z AUTO 33013KT 9999 FEW019/// 03/02 Q0991 RERA NNW (330°) 15.0mph 3°C 2°C
16/03/19 20:20 EGPI 162020Z AUTO 32011KT 9999 -RA FEW031/// SCT047/// 04/02 Q0991 -RA NW (320°) 12.7mph 4°C 2°C
16/03/19 19:50 EGPI 161950Z AUTO 32012KT 9999 FEW018/// BKN036/// 03/02 Q0990 NW (320°) 13.8mph 3°C 2°C
16/03/19 19:20 EGPI 161920Z AUTO 31014KT 9999 SCT030/// 04/02 Q0990 NW (310°) 16.1mph 4°C 2°C
16/03/19 18:50 EGPI 161850Z AUTO 31013KT 9999 FEW024/// BKN034/// 05/02 Q0989 NW (310°) 15.0mph 5°C 2°C
16/03/19 18:20 EGPI 161820Z AUTO 32012KT 9999 SCT024/// 04/02 Q0989 NW (320°) 13.8mph 4°C 2°C
16/03/19 17:50 EGPI 161750Z AUTO 31015KT 9999 SCT017/// BKN026/// 05/03 Q0988 NW (310°) 17.3mph 5°C 3°C
16/03/19 17:20 EGPI 161720Z AUTO 32015KT 9999 FEW014/// SCT017/// BKN027/// 05/04 Q0988 NW (320°) 17.3mph 5°C 4°C
16/03/19 16:50 EGPI 161650Z AUTO 32017KT 9999 BKN028/// 05/02 Q0988 RERA NW (320°) 19.6mph 5°C 2°C
16/03/19 16:20 EGPI 161620Z AUTO 31018KT 9999 FEW017/// BKN021/// 05/04 Q0987 RERA NW (310°) 20.7mph 5°C 4°C
16/03/19 15:50 EGPI 161550Z AUTO 32020KT 9999 FEW017/// SCT024/// 06/04 Q0987 RERA NW (320°) 23.0mph 6°C 4°C
16/03/19 15:20 EGPI 161520Z AUTO 33023KT 9999 FEW013/// SCT017/// 06/04 Q0986 RERA NNW (330°) 26.5mph 6°C 4°C
16/03/19 14:50 EGPI 161450Z AUTO 33018KT 9999 -RA SCT013/// BKN021/// 05/04 Q0985 -RA NNW (330°) 20.7mph 5°C 4°C
16/03/19 14:20 EGPI 161420Z AUTO 33019KT 9999 -RA BKN011/// SCT030/// 05/04 Q0985 -RA NNW (330°) 21.9mph 5°C 4°C
16/03/19 13:50 EGPI 161350Z AUTO 34018KT 310V010 9999 SCT007/// SCT015/// BKN027/// 05/04 Q0984 RERA NNW (340°) 20.7mph 5°C 4°C
16/03/19 13:20 EGPI 161320Z AUTO 34019KT 310V010 5000 BR BKN007/// SCT018/// 04/03 Q0984 RERA BR NNW (340°) 21.9mph 4°C 3°C
16/03/19 12:50 EGPI 161250Z AUTO 35018KT 330V040 9999 SCT006/// 04/04 Q0984 RERA N (350°) 20.7mph 4°C 4°C
16/03/19 12:20 EGPI 161220Z AUTO 35013KT 320V020 5000 BR SCT006/// BKN013/// 04/03 Q0983 BR N (350°) 15.0mph 4°C 3°C
16/03/19 11:50 EGPI 161150Z AUTO 36014KT 320V040 3700 BR FEW006/// BKN016/// 03/03 Q0983 REDZ BR N (360°) 16.1mph 3°C 3°C
16/03/19 11:20 EGPI 161120Z AUTO 01013KT 330V040 6000 FEW011/// BKN016/// 03/02 Q0983 RERA N (10°) 15.0mph 3°C 2°C
16/03/19 10:50 EGPI 161050Z AUTO 06016KT 020V100 9999 -DZ OVC017/// 03/03 Q0982 -DZ ENE (60°) 18.4mph 3°C 3°C
16/03/19 10:20 EGPI 161020Z 08018KT 040V120 9000 -RA BKN017 04/03 Q0982 -RA E (80°) 20.7mph 4°C 3°C
16/03/19 09:20 EGPI 160920Z 08019G29KT 050V130 7000 RA FEW008 SCT022 BKN027 03/02 Q0983 RA E (80°) 21.9mph 33.4mph 3°C 2°C
16/03/19 08:50 EGPI 160850Z 09021G39KT 050V120 9999 -RA FEW009 SCT032 03/02 Q0984 -RA E (90°) 24.2mph 44.9mph 3°C 2°C
16/03/19 08:20 EGPI 160820Z 08022G34KT 050V130 8000 -RA FEW009 SCT030 02/02 Q0985 -RA E (80°) 25.3mph 39.1mph 2°C 2°C
16/03/19 07:50 EGPI 160750Z 08019G29KT 030V110 7000 -RASN FEW008 BKN026 02/02 Q0986 -RA -SN E (80°) 21.9mph 33.4mph 2°C 2°C
16/03/19 07:20 EGPI 160720Z 09010KT 030V130 9999 -RA FEW009 BKN020 OVC028 02/01 Q0988 -RA E (90°) 11.5mph 2°C 1°C
16/03/19 06:50 EGPI 160650Z 09006KT 060V130 8000 RA SCT008 BKN019 01/01 Q0989 RA E (90°) 6.9mph 1°C 1°C
16/03/19 05:50 EGPI 160550Z AUTO 10007KT 9999 RA BKN021/// 02/01 Q0991 RA E (100°) 8.1mph 2°C 1°C
16/03/19 05:20 EGPI 160520Z AUTO 11010KT 080V140 9999 -RA FEW009/// BKN021/// 02/02 Q0992 -RA ESE (110°) 11.5mph 2°C 2°C
16/03/19 04:50 EGPI 160450Z AUTO 12009KT 090V150 7000 RA FEW007/// SCT009/// BKN018/// 02/02 Q0993 RA ESE (120°) 10.4mph 2°C 2°C
16/03/19 04:20 EGPI 160420Z AUTO 12006KT 080V150 6000 RA BKN009/// BKN018/// 03/02 Q0994 RA ESE (120°) 6.9mph 3°C 2°C
16/03/19 03:50 EGPI 160350Z AUTO 13004KT 100V170 8000 RA BKN009/// 03/03 Q0995 RA SE (130°) 4.6mph 3°C 3°C
16/03/19 03:20 EGPI 160320Z AUTO VRB03KT 8000 RA BKN011/// SCT021/// 03/03 Q0996 RA N (0°) 3.5mph 3°C 3°C
16/03/19 02:50 EGPI 160250Z AUTO 11004KT 9999 -RA SCT013/// SCT022/// BKN030/// 03/03 Q0996 -RA ESE (110°) 4.6mph 3°C 3°C
16/03/19 02:20 EGPI 160220Z AUTO 12004KT 8000 RA BKN012/// BKN035/// 03/03 Q0997 RA ESE (120°) 4.6mph 3°C 3°C